MSC Bari — A8YD3 — position and weather

sailwx.info

Track history (hours):
 
Tides and Currents Weather Stations Pressure Air Temp Water Temp Dewpoint Dewpoint Depression Visibility Wind Speed Wind Dir Waves Ship Positions

MSC Bari

Last reported at 2017-Nov-16 02:05 UTC. Time now 2017-Nov-24 05:26 UTC.
Position N 01°18' E 103°21'.
Warning: this ship's position is 8 days out of date.

Length 366 m; draft 13.7 m.

Type: Ship (hazmat cat A). MMSI: 636092188.

Date/timePositionNaut miles runAvg speedWind from/ knotsBaromVisibWave heightAir tempDewpointWater temp
2017-Nov-16 02:05N 01°18' E 103°21'117.7
2017-Nov-16 02:00N 01°17' E 103°22'714.6
2017-Nov-16 01:30N 01°14' E 103°28'816.1
2017-Nov-16 01:00N 01°12' E 103°36'510.8
2017-Nov-16 00:30N 01°14' E 103°41'5 9.7
2017-Nov-16 00:00N 01°16' E 103°45'0 0.6
2017-Nov-15 23:29N 01°16' E 103°46'0 0.0
2017-Nov-15 22:56N 01°16' E 103°46'0 0.0
2017-Nov-15 22:29N 01°16' E 103°46'0 0.0
2017-Nov-15 21:59N 01°16' E 103°46'0 0.0
2017-Nov-15 21:29N 01°16' E 103°46'0 0.0
2017-Nov-15 20:56N 01°16' E 103°46'0 0.0
2017-Nov-15 20:29N 01°16' E 103°46'0 0.0
2017-Nov-15 19:59N 01°16' E 103°46'0 0.0
2017-Nov-15 19:29N 01°16' E 103°46'0 0.0
2017-Nov-15 18:59N 01°16' E 103°46'0 0.0
2017-Nov-15 18:29N 01°16' E 103°46'0 0.0
2017-Nov-15 17:59N 01°16' E 103°46'0 0.0
2017-Nov-15 17:26N 01°16' E 103°46'0 0.0
2017-Nov-15 16:59N 01°16' E 103°46'0 0.0
2017-Nov-15 16:29N 01°16' E 103°46'0 0.0
2017-Nov-15 15:59N 01°16' E 103°46'0 0.0
2017-Nov-15 15:29N 01°16' E 103°46'0 0.0
2017-Nov-15 14:59N 01°16' E 103°46'0 0.0
2017-Nov-15 14:29N 01°16' E 103°46'0 0.0
2017-Nov-15 13:59N 01°16' E 103°46'0 0.0
2017-Nov-15 13:29N 01°16' E 103°46'0 0.0
2017-Nov-15 12:59N 01°16' E 103°46'0 0.0
2017-Nov-15 12:29N 01°16' E 103°46'0 0.0
2017-Nov-15 11:59N 01°16' E 103°46'0 0.0
2017-Nov-15 11:26N 01°16' E 103°46'0 0.0
2017-Nov-15 10:58N 01°16' E 103°46'0 0.0
2017-Nov-15 10:29N 01°16' E 103°46'0 0.0
2017-Nov-15 09:56N 01°16' E 103°46'0 0.0
2017-Nov-15 09:29N 01°16' E 103°46'0 0.0
2017-Nov-15 08:55N 01°16' E 103°46'0 0.0
2017-Nov-15 08:26N 01°16' E 103°46'0 0.0
2017-Nov-15 07:59N 01°16' E 103°46'0 0.0
2017-Nov-15 07:28N 01°16' E 103°46'0 0.0
2017-Nov-15 06:59N 01°16' E 103°46'0 0.0
2017-Nov-15 06:28N 01°16' E 103°46'0 0.0
2017-Nov-15 05:58N 01°16' E 103°46'0 0.0
2017-Nov-15 05:28N 01°16' E 103°46'0 0.0
2017-Nov-15 04:58N 01°16' E 103°46'0 0.0
2017-Nov-15 04:29N 01°16' E 103°46'0 0.0
2017-Nov-15 03:58N 01°16' E 103°46'0 0.0
2017-Nov-15 03:22N 01°16' E 103°46'0 0.0
2017-Nov-15 02:58N 01°16' E 103°46'0 0.0
2017-Nov-15 02:28N 01°16' E 103°46'0 0.0
2017-Nov-15 01:58N 01°16' E 103°46'0 0.0
2017-Nov-15 01:28N 01°16' E 103°46'0 0.0
2017-Nov-15 00:58N 01°16' E 103°46'0 0.0
2017-Nov-15 00:29N 01°16' E 103°46'0 0.0
2017-Nov-14 23:59N 01°16' E 103°46'0 0.0
2017-Nov-14 23:31N 01°16' E 103°46'0 0.6
2017-Nov-14 23:01N 01°16' E 103°46'2 4.4
2017-Nov-14 22:30N 01°14' E 103°47'3 6.8
2017-Nov-14 22:01N 01°12' E 103°50'4 8.3
2017-Nov-14 21:31N 01°13' E 103°54'4 8.7
2017-Nov-14 21:00N 01°15' E 103°58'5 9.8
2017-Nov-14 20:30N 01°16' E 104°02'1510.1
2017-Nov-14 19:02N 01°18' E 104°17'410.1
2017-Nov-14 18:38N 01°20' E 104°21'210.1
2017-Nov-14 18:27N 01°21' E 104°23'  
2017-Nov-10 12:50N 22°06' E 114°38'310.1
2017-Nov-10 12:30N 22°09' E 114°36'5 9.7
2017-Nov-10 12:00N 22°14' E 114°34'510.6
2017-Nov-10 11:30N 22°19' E 114°32'510.7
2017-Nov-10 11:00N 22°24' E 114°30'510.6
2017-Nov-10 10:30N 22°28' E 114°27'612.0
2017-Nov-10 10:01N 22°32' E 114°23'510.8
2017-Nov-10 09:30N 22°34' E 114°17'0 0.8
2017-Nov-10 09:00N 22°35' E 114°17'0 0.0
2017-Nov-10 08:29N 22°35' E 114°17'0 0.0
2017-Nov-10 07:59N 22°35' E 114°17'0 0.0
2017-Nov-10 07:29N 22°35' E 114°17'0 0.0
2017-Nov-10 06:59N 22°35' E 114°17'0 0.0
2017-Nov-10 06:29N 22°35' E 114°17'0 0.0
2017-Nov-10 05:59N 22°35' E 114°17'0 0.0
2017-Nov-10 05:29N 22°35' E 114°17'0 0.0
2017-Nov-10 04:59N 22°35' E 114°17'0 0.0
2017-Nov-10 04:29N 22°35' E 114°17'0 0.0
2017-Nov-10 03:59N 22°35' E 114°17'0 0.0
2017-Nov-10 03:29N 22°35' E 114°17'0 0.0
2017-Nov-10 02:59N 22°35' E 114°17'0 0.0
2017-Nov-10 02:29N 22°35' E 114°17'0 0.0
2017-Nov-10 01:59N 22°35' E 114°17'0 0.0
2017-Nov-10 01:29N 22°35' E 114°17'0 0.0
2017-Nov-10 00:59N 22°35' E 114°17'0 0.0
2017-Nov-10 00:29N 22°35' E 114°17'0 0.0
2017-Nov-09 23:59N 22°35' E 114°17'0 0.0
2017-Nov-09 23:29N 22°35' E 114°17'0 0.0
2017-Nov-09 22:59N 22°35' E 114°17'0 0.1
2017-Nov-09 22:30N 22°35' E 114°17'1 2.5
2017-Nov-09 22:00N 22°34' E 114°18'510.5
2017-Nov-09 21:30N 22°33' E 114°24'611.2
2017-Nov-09 21:01N 22°29' E 114°27'815.3
2017-Nov-09 20:31N 22°22' E 114°32'3 5.3
2017-Nov-09 20:01N 22°21' E 114°35'1 1.8
2017-Nov-09 19:31N 22°22' E 114°35'1 1.9
2017-Nov-09 19:01N 22°22' E 114°36'1 1.4
2017-Nov-09 18:31N 22°22' E 114°37'1 2.8
2017-Nov-09 18:01N 22°22' E 114°35'3 5.1
2017-Nov-09 17:31N 22°21' E 114°33'1 1.8
2017-Nov-09 17:01N 22°20' E 114°32'1 2.1
2017-Nov-09 16:31N 22°20' E 114°33'1 2.1
2017-Nov-09 16:01N 22°21' E 114°34'1 2.2
2017-Nov-09 15:30N 22°22' E 114°35'1 2.3
2017-Nov-09 15:01N 22°22' E 114°36'1 2.1
2017-Nov-09 14:30N 22°22' E 114°37'1 1.2
2017-Nov-09 14:01N 22°22' E 114°38'510.2
2017-Nov-09 13:31N 22°18' E 114°35'815.6
2017-Nov-09 13:01N 22°10' E 114°32'816.3
2017-Nov-09 12:31N 22°04' E 114°26'816.4
2017-Nov-09 12:00N 21°60' E 114°19'1616.3
2017-Nov-09 11:02N 21°59' E 114°02'117.4
2017-Nov-09 10:59N 21°59' E 114°01'816.4
2017-Nov-09 10:30N 22°02' E 113°53'712.9
2017-Nov-09 10:00N 22°08' E 113°51'612.3
2017-Nov-09 09:31N 22°14' E 113°49'714.0
2017-Nov-09 09:00N 22°21' E 113°49'713.7
2017-Nov-09 08:30N 22°27' E 113°53'1 1.7
2017-Nov-09 08:00N 22°28' E 113°53'0 0.0
2017-Nov-09 07:29N 22°28' E 113°53'0 0.0
2017-Nov-09 07:00N 22°28' E 113°53'0 0.0
2017-Nov-09 06:30N 22°28' E 113°53'0 0.0
2017-Nov-09 06:00N 22°28' E 113°53'0 0.0
2017-Nov-09 05:29N 22°28' E 113°53'0 0.0
2017-Nov-09 04:59N 22°28' E 113°53'0 0.0
2017-Nov-09 04:29N 22°28' E 113°53'0 0.0
2017-Nov-09 03:59N 22°28' E 113°53'0 0.0
2017-Nov-09 03:30N 22°28' E 113°53'0 0.0
2017-Nov-09 03:00N 22°28' E 113°53'0 0.0
2017-Nov-09 02:30N 22°28' E 113°53'0 0.7
2017-Nov-09 02:00N 22°27' E 113°52'4 8.8
2017-Nov-09 01:30N 22°23' E 113°50'611.2
2017-Nov-09 01:00N 22°18' E 113°48'4 8.5
2017-Nov-09 00:30N 22°14' E 113°49'713.6
2017-Nov-09 00:00N 22°08' E 113°51'5 9.4
2017-Nov-08 23:30N 22°03' E 113°51'5 9.6
2017-Nov-08 23:00N 21°58' E 113°50'0 0.2
2017-Nov-08 22:25N 21°58' E 113°50'0 0.0
2017-Nov-08 21:58N 21°58' E 113°50'0 0.0
2017-Nov-08 21:22N 21°58' E 113°50'0 0.0
2017-Nov-08 20:58N 21°58' E 113°50'0 0.0
2017-Nov-08 20:25N 21°58' E 113°50'0 0.0
2017-Nov-08 19:58N 21°58' E 113°50'0 0.0
2017-Nov-08 19:28N 21°58' E 113°50'0 0.0
2017-Nov-08 18:58N 21°58' E 113°50'0 0.0
2017-Nov-08 18:25N 21°58' E 113°50'0 0.0
2017-Nov-08 17:58N 21°58' E 113°50'0 0.0
2017-Nov-08 17:28N 21°58' E 113°50'0 0.0
2017-Nov-08 16:58N 21°58' E 113°50'0 0.0
2017-Nov-08 16:31N 21°58' E 113°50'0 0.0
2017-Nov-08 15:58N 21°58' E 113°50'0 0.0
2017-Nov-08 15:22N 21°58' E 113°50'0 0.0
2017-Nov-08 14:58N 21°58' E 113°50'0 0.0
2017-Nov-08 14:28N 21°58' E 113°50'0 0.0
2017-Nov-08 13:46N 21°58' E 113°50'0 0.1
2017-Nov-08 13:16N 21°58' E 113°50'0 0.0
2017-Nov-08 11:49N 21°58' E 113°50'0 0.0
2017-Nov-08 10:07N 21°58' E 113°50'0 0.0
2017-Nov-08 09:48N 21°58' E 113°50'0 0.1
2017-Nov-08 09:28N 21°58' E 113°50'0 0.0
2017-Nov-08 08:52N 21°58' E 113°50'0 0.1
2017-Nov-08 08:19N 21°58' E 113°50'0 0.1
2017-Nov-08 07:55N 21°58' E 113°50'0 0.2
2017-Nov-08 07:30N 21°58' E 113°50'3 5.7
2017-Nov-08 07:00N 22°01' E 113°51'611.3
2017-Nov-08 06:30N 22°07' E 113°51'613.3
2017-Nov-08 06:00N 22°13' E 113°49'815.8
2017-Nov-08 05:30N 22°21' E 113°48'715.0
2017-Nov-08 05:00N 22°28' E 113°45'713.4
2017-Nov-08 04:30N 22°34' E 113°43'5 9.6
2017-Nov-08 04:00N 22°39' E 113°41'0 0.4
2017-Nov-08 03:30N 22°39' E 113°41'0 0.0
2017-Nov-08 03:00N 22°39' E 113°41'0 0.0
2017-Nov-08 02:30N 22°39' E 113°41'0 0.0
2017-Nov-08 01:59N 22°39' E 113°41'0 0.0
2017-Nov-08 01:30N 22°39' E 113°41'0 0.0
2017-Nov-08 01:00N 22°39' E 113°41'0 0.0
2017-Nov-08 00:30N 22°39' E 113°41'0 0.0
2017-Nov-08 00:00N 22°39' E 113°41'0 0.0
2017-Nov-07 23:24N 22°39' E 113°41'0 0.0
2017-Nov-07 23:00N 22°39' E 113°41'0 0.0
2017-Nov-07 22:24N 22°39' E 113°41'0 0.0
2017-Nov-07 22:00N 22°39' E 113°41'0 0.0
2017-Nov-07 21:27N 22°39' E 113°41'0 0.0
2017-Nov-07 21:01N 22°39' E 113°41'1 2.6
2017-Nov-07 20:30N 22°38' E 113°42'611.4
2017-Nov-07 20:00N 22°32' E 113°44'714.9
2017-Nov-07 19:31N 22°25' E 113°46'714.2
2017-Nov-07 19:00N 22°18' E 113°48'714.5
2017-Nov-07 18:30N 22°11' E 113°50'612.2
2017-Nov-07 18:00N 22°05' E 113°51'611.7
2017-Nov-07 17:30N 22°01' E 113°55'816.3
2017-Nov-07 17:00N 21°58' E 114°03'1516.4
2017-Nov-07 16:07N 21°60' E 114°19'217.4
2017-Nov-07 16:00N 22°00' E 114°21'917.2
2017-Nov-07 15:30N 22°03' E 114°29'917.3
2017-Nov-07 15:00N 22°06' E 114°38'816.9
2017-Nov-07 14:30N 22°09' E 114°47'917.1
2017-Nov-07 14:00N 22°10' E 114°56'917.2
2017-Nov-07 13:30N 22°13' E 115°05'917.1
2017-Nov-07 13:00N 22°15' E 115°14'917.4
2017-Nov-07 12:30N 22°18' E 115°23'1217.4
2017-Nov-07 11:49N 22°21' E 115°35'16616.8
2017-Nov-07 01:55N 23°50' E 118°07'715.6
2017-Nov-07 01:30N 23°54' E 118°13'715.2
2017-Nov-07 01:00N 24°00' E 118°17'815.3
2017-Nov-07 00:30N 24°08' E 118°19'815.2
2017-Nov-07 00:00N 24°15' E 118°16'815.5
2017-Nov-06 23:30N 24°20' E 118°10'713.2
2017-Nov-06 23:00N 24°25' E 118°05'4 7.3
2017-Nov-06 22:30N 24°27' E 118°01'0 0.1
2017-Nov-06 21:57N 24°27' E 118°01'0 0.0
2017-Nov-06 21:30N 24°27' E 118°01'0 0.0
2017-Nov-06 21:00N 24°27' E 118°01'0 0.0
2017-Nov-06 20:30N 24°27' E 118°01'0 0.0
2017-Nov-06 02:30N 24°27' E 118°01'  
Track history (hours):
 
Tides and Currents Weather Stations Pressure Air Temp Water Temp Dewpoint Dewpoint Depression Visibility Wind Speed Wind Dir Waves Ship Positions

MSC Bari

Last reported at 2017-Nov-16 02:05 UTC. Time now 2017-Nov-24 05:26 UTC.
Position N 01°18' E 103°21'.
Warning: this ship's position is 8 days out of date.

Length 366 m; draft 13.7 m.

Type: Ship (hazmat cat A). MMSI: 636092188.

Date/timePositionNaut miles runAvg speedWind from/ knotsBaromVisibWave heightAir tempDewpointWater temp
2017-Nov-16 02:05N 01°18' E 103°21'117.7
2017-Nov-16 02:00N 01°17' E 103°22'714.6
2017-Nov-16 01:30N 01°14' E 103°28'816.1
2017-Nov-16 01:00N 01°12' E 103°36'510.8
2017-Nov-16 00:30N 01°14' E 103°41'5 9.7
2017-Nov-16 00:00N 01°16' E 103°45'0 0.6
2017-Nov-15 23:29N 01°16' E 103°46'0 0.0
2017-Nov-15 22:56N 01°16' E 103°46'0 0.0
2017-Nov-15 22:29N 01°16' E 103°46'0 0.0
2017-Nov-15 21:59N 01°16' E 103°46'0 0.0
2017-Nov-15 21:29N 01°16' E 103°46'0 0.0
2017-Nov-15 20:56N 01°16' E 103°46'0 0.0
2017-Nov-15 20:29N 01°16' E 103°46'0 0.0
2017-Nov-15 19:59N 01°16' E 103°46'0 0.0
2017-Nov-15 19:29N 01°16' E 103°46'0 0.0
2017-Nov-15 18:59N 01°16' E 103°46'0 0.0
2017-Nov-15 18:29N 01°16' E 103°46'0 0.0
2017-Nov-15 17:59N 01°16' E 103°46'0 0.0
2017-Nov-15 17:26N 01°16' E 103°46'0 0.0
2017-Nov-15 16:59N 01°16' E 103°46'0 0.0
2017-Nov-15 16:29N 01°16' E 103°46'0 0.0
2017-Nov-15 15:59N 01°16' E 103°46'0 0.0
2017-Nov-15 15:29N 01°16' E 103°46'0 0.0
2017-Nov-15 14:59N 01°16' E 103°46'0 0.0
2017-Nov-15 14:29N 01°16' E 103°46'0 0.0
2017-Nov-15 13:59N 01°16' E 103°46'0 0.0
2017-Nov-15 13:29N 01°16' E 103°46'0 0.0
2017-Nov-15 12:59N 01°16' E 103°46'0 0.0
2017-Nov-15 12:29N 01°16' E 103°46'0 0.0
2017-Nov-15 11:59N 01°16' E 103°46'0 0.0
2017-Nov-15 11:26N 01°16' E 103°46'0 0.0
2017-Nov-15 10:58N 01°16' E 103°46'0 0.0
2017-Nov-15 10:29N 01°16' E 103°46'0 0.0
2017-Nov-15 09:56N 01°16' E 103°46'0 0.0
2017-Nov-15 09:29N 01°16' E 103°46'0 0.0
2017-Nov-15 08:55N 01°16' E 103°46'0 0.0
2017-Nov-15 08:26N 01°16' E 103°46'0 0.0
2017-Nov-15 07:59N 01°16' E 103°46'0 0.0
2017-Nov-15 07:28N 01°16' E 103°46'0 0.0
2017-Nov-15 06:59N 01°16' E 103°46'0 0.0
2017-Nov-15 06:28N 01°16' E 103°46'0 0.0
2017-Nov-15 05:58N 01°16' E 103°46'0 0.0
2017-Nov-15 05:28N 01°16' E 103°46'0 0.0
2017-Nov-15 04:58N 01°16' E 103°46'0 0.0
2017-Nov-15 04:29N 01°16' E 103°46'0 0.0
2017-Nov-15 03:58N 01°16' E 103°46'0 0.0
2017-Nov-15 03:22N 01°16' E 103°46'0 0.0
2017-Nov-15 02:58N 01°16' E 103°46'0 0.0
2017-Nov-15 02:28N 01°16' E 103°46'0 0.0
2017-Nov-15 01:58N 01°16' E 103°46'0 0.0
2017-Nov-15 01:28N 01°16' E 103°46'0 0.0
2017-Nov-15 00:58N 01°16' E 103°46'0 0.0
2017-Nov-15 00:29N 01°16' E 103°46'0 0.0
2017-Nov-14 23:59N 01°16' E 103°46'0 0.0
2017-Nov-14 23:31N 01°16' E 103°46'0 0.6
2017-Nov-14 23:01N 01°16' E 103°46'2 4.4
2017-Nov-14 22:30N 01°14' E 103°47'3 6.8
2017-Nov-14 22:01N 01°12' E 103°50'4 8.3
2017-Nov-14 21:31N 01°13' E 103°54'4 8.7
2017-Nov-14 21:00N 01°15' E 103°58'5 9.8
2017-Nov-14 20:30N 01°16' E 104°02'1510.1
2017-Nov-14 19:02N 01°18' E 104°17'410.1
2017-Nov-14 18:38N 01°20' E 104°21'210.1
2017-Nov-14 18:27N 01°21' E 104°23'  
2017-Nov-10 12:50N 22°06' E 114°38'310.1
2017-Nov-10 12:30N 22°09' E 114°36'5 9.7
2017-Nov-10 12:00N 22°14' E 114°34'510.6
2017-Nov-10 11:30N 22°19' E 114°32'510.7
2017-Nov-10 11:00N 22°24' E 114°30'510.6
2017-Nov-10 10:30N 22°28' E 114°27'612.0
2017-Nov-10 10:01N 22°32' E 114°23'510.8
2017-Nov-10 09:30N 22°34' E 114°17'0 0.8
2017-Nov-10 09:00N 22°35' E 114°17'0 0.0
2017-Nov-10 08:29N 22°35' E 114°17'0 0.0
2017-Nov-10 07:59N 22°35' E 114°17'0 0.0
2017-Nov-10 07:29N 22°35' E 114°17'0 0.0
2017-Nov-10 06:59N 22°35' E 114°17'0 0.0
2017-Nov-10 06:29N 22°35' E 114°17'0 0.0
2017-Nov-10 05:59N 22°35' E 114°17'0 0.0
2017-Nov-10 05:29N 22°35' E 114°17'0 0.0
2017-Nov-10 04:59N 22°35' E 114°17'0 0.0
2017-Nov-10 04:29N 22°35' E 114°17'0 0.0
2017-Nov-10 03:59N 22°35' E 114°17'0 0.0
2017-Nov-10 03:29N 22°35' E 114°17'0 0.0
2017-Nov-10 02:59N 22°35' E 114°17'0 0.0
2017-Nov-10 02:29N 22°35' E 114°17'0 0.0
2017-Nov-10 01:59N 22°35' E 114°17'0 0.0
2017-Nov-10 01:29N 22°35' E 114°17'0 0.0
2017-Nov-10 00:59N 22°35' E 114°17'0 0.0
2017-Nov-10 00:29N 22°35' E 114°17'0 0.0
2017-Nov-09 23:59N 22°35' E 114°17'0 0.0
2017-Nov-09 23:29N 22°35' E 114°17'0 0.0
2017-Nov-09 22:59N 22°35' E 114°17'0 0.1
2017-Nov-09 22:30N 22°35' E 114°17'1 2.5
2017-Nov-09 22:00N 22°34' E 114°18'510.5
2017-Nov-09 21:30N 22°33' E 114°24'611.2
2017-Nov-09 21:01N 22°29' E 114°27'815.3
2017-Nov-09 20:31N 22°22' E 114°32'3 5.3
2017-Nov-09 20:01N 22°21' E 114°35'1 1.8
2017-Nov-09 19:31N 22°22' E 114°35'1 1.9
2017-Nov-09 19:01N 22°22' E 114°36'1 1.4
2017-Nov-09 18:31N 22°22' E 114°37'1 2.8
2017-Nov-09 18:01N 22°22' E 114°35'3 5.1
2017-Nov-09 17:31N 22°21' E 114°33'1 1.8
2017-Nov-09 17:01N 22°20' E 114°32'1 2.1
2017-Nov-09 16:31N 22°20' E 114°33'1 2.1
2017-Nov-09 16:01N 22°21' E 114°34'1 2.2
2017-Nov-09 15:30N 22°22' E 114°35'1 2.3
2017-Nov-09 15:01N 22°22' E 114°36'1 2.1
2017-Nov-09 14:30N 22°22' E 114°37'1 1.2
2017-Nov-09 14:01N 22°22' E 114°38'510.2
2017-Nov-09 13:31N 22°18' E 114°35'815.6
2017-Nov-09 13:01N 22°10' E 114°32'816.3
2017-Nov-09 12:31N 22°04' E 114°26'816.4
2017-Nov-09 12:00N 21°60' E 114°19'1616.3
2017-Nov-09 11:02N 21°59' E 114°02'117.4
2017-Nov-09 10:59N 21°59' E 114°01'816.4
2017-Nov-09 10:30N 22°02' E 113°53'712.9
2017-Nov-09 10:00N 22°08' E 113°51'612.3
2017-Nov-09 09:31N 22°14' E 113°49'714.0
2017-Nov-09 09:00N 22°21' E 113°49'713.7
2017-Nov-09 08:30N 22°27' E 113°53'1 1.7
2017-Nov-09 08:00N 22°28' E 113°53'0 0.0
2017-Nov-09 07:29N 22°28' E 113°53'0 0.0
2017-Nov-09 07:00N 22°28' E 113°53'0 0.0
2017-Nov-09 06:30N 22°28' E 113°53'0 0.0
2017-Nov-09 06:00N 22°28' E 113°53'0 0.0
2017-Nov-09 05:29N 22°28' E 113°53'0 0.0
2017-Nov-09 04:59N 22°28' E 113°53'0 0.0
2017-Nov-09 04:29N 22°28' E 113°53'0 0.0
2017-Nov-09 03:59N 22°28' E 113°53'0 0.0
2017-Nov-09 03:30N 22°28' E 113°53'0 0.0
2017-Nov-09 03:00N 22°28' E 113°53'0 0.0
2017-Nov-09 02:30N 22°28' E 113°53'0 0.7
2017-Nov-09 02:00N 22°27' E 113°52'4 8.8
2017-Nov-09 01:30N 22°23' E 113°50'611.2
2017-Nov-09 01:00N 22°18' E 113°48'4 8.5
2017-Nov-09 00:30N 22°14' E 113°49'713.6
2017-Nov-09 00:00N 22°08' E 113°51'5 9.4
2017-Nov-08 23:30N 22°03' E 113°51'5 9.6
2017-Nov-08 23:00N 21°58' E 113°50'0 0.2
2017-Nov-08 22:25N 21°58' E 113°50'0 0.0
2017-Nov-08 21:58N 21°58' E 113°50'0 0.0
2017-Nov-08 21:22N 21°58' E 113°50'0 0.0
2017-Nov-08 20:58N 21°58' E 113°50'0 0.0
2017-Nov-08 20:25N 21°58' E 113°50'0 0.0
2017-Nov-08 19:58N 21°58' E 113°50'0 0.0
2017-Nov-08 19:28N 21°58' E 113°50'0 0.0
2017-Nov-08 18:58N 21°58' E 113°50'0 0.0
2017-Nov-08 18:25N 21°58' E 113°50'0 0.0
2017-Nov-08 17:58N 21°58' E 113°50'0 0.0
2017-Nov-08 17:28N 21°58' E 113°50'0 0.0
2017-Nov-08 16:58N 21°58' E 113°50'0 0.0
2017-Nov-08 16:31N 21°58' E 113°50'0 0.0
2017-Nov-08 15:58N 21°58' E 113°50'0 0.0
2017-Nov-08 15:22N 21°58' E 113°50'0 0.0
2017-Nov-08 14:58N 21°58' E 113°50'0 0.0
2017-Nov-08 14:28N 21°58' E 113°50'0 0.0
2017-Nov-08 13:46N 21°58' E 113°50'0 0.1
2017-Nov-08 13:16N 21°58' E 113°50'0 0.0
2017-Nov-08 11:49N 21°58' E 113°50'0 0.0
2017-Nov-08 10:07N 21°58' E 113°50'0 0.0
2017-Nov-08 09:48N 21°58' E 113°50'0 0.1
2017-Nov-08 09:28N 21°58' E 113°50'0 0.0
2017-Nov-08 08:52N 21°58' E 113°50'0 0.1
2017-Nov-08 08:19N 21°58' E 113°50'0 0.1
2017-Nov-08 07:55N 21°58' E 113°50'0 0.2
2017-Nov-08 07:30N 21°58' E 113°50'3 5.7
2017-Nov-08 07:00N 22°01' E 113°51'611.3
2017-Nov-08 06:30N 22°07' E 113°51'613.3
2017-Nov-08 06:00N 22°13' E 113°49'815.8
2017-Nov-08 05:30N 22°21' E 113°48'715.0
2017-Nov-08 05:00N 22°28' E 113°45'713.4
2017-Nov-08 04:30N 22°34' E 113°43'5 9.6
2017-Nov-08 04:00N 22°39' E 113°41'0 0.4
2017-Nov-08 03:30N 22°39' E 113°41'0 0.0
2017-Nov-08 03:00N 22°39' E 113°41'0 0.0
2017-Nov-08 02:30N 22°39' E 113°41'0 0.0
2017-Nov-08 01:59N 22°39' E 113°41'0 0.0
2017-Nov-08 01:30N 22°39' E 113°41'0 0.0
2017-Nov-08 01:00N 22°39' E 113°41'0 0.0
2017-Nov-08 00:30N 22°39' E 113°41'0 0.0
2017-Nov-08 00:00N 22°39' E 113°41'0 0.0
2017-Nov-07 23:24N 22°39' E 113°41'0 0.0
2017-Nov-07 23:00N 22°39' E 113°41'0 0.0
2017-Nov-07 22:24N 22°39' E 113°41'0 0.0
2017-Nov-07 22:00N 22°39' E 113°41'0 0.0
2017-Nov-07 21:27N 22°39' E 113°41'0 0.0
2017-Nov-07 21:01N 22°39' E 113°41'1 2.6
2017-Nov-07 20:30N 22°38' E 113°42'611.4
2017-Nov-07 20:00N 22°32' E 113°44'714.9
2017-Nov-07 19:31N 22°25' E 113°46'714.2
2017-Nov-07 19:00N 22°18' E 113°48'714.5
2017-Nov-07 18:30N 22°11' E 113°50'612.2
2017-Nov-07 18:00N 22°05' E 113°51'611.7
2017-Nov-07 17:30N 22°01' E 113°55'816.3
2017-Nov-07 17:00N 21°58' E 114°03'1516.4
2017-Nov-07 16:07N 21°60' E 114°19'217.4
2017-Nov-07 16:00N 22°00' E 114°21'917.2
2017-Nov-07 15:30N 22°03' E 114°29'917.3
2017-Nov-07 15:00N 22°06' E 114°38'816.9
2017-Nov-07 14:30N 22°09' E 114°47'917.1
2017-Nov-07 14:00N 22°10' E 114°56'917.2
2017-Nov-07 13:30N 22°13' E 115°05'917.1
2017-Nov-07 13:00N 22°15' E 115°14'917.4
2017-Nov-07 12:30N 22°18' E 115°23'1217.4
2017-Nov-07 11:49N 22°21' E 115°35'16616.8
2017-Nov-07 01:55N 23°50' E 118°07'715.6
2017-Nov-07 01:30N 23°54' E 118°13'715.2
2017-Nov-07 01:00N 24°00' E 118°17'815.3
2017-Nov-07 00:30N 24°08' E 118°19'815.2
2017-Nov-07 00:00N 24°15' E 118°16'815.5
2017-Nov-06 23:30N 24°20' E 118°10'713.2
2017-Nov-06 23:00N 24°25' E 118°05'4 7.3
2017-Nov-06 22:30N 24°27' E 118°01'0 0.1
2017-Nov-06 21:57N 24°27' E 118°01'0 0.0
2017-Nov-06 21:30N 24°27' E 118°01'0 0.0
2017-Nov-06 21:00N 24°27' E 118°01'0 0.0
2017-Nov-06 20:30N 24°27' E 118°01'0 0.0
2017-Nov-06 02:30N 24°27' E 118°01'  

Dump ship's entire track history